San Brendan — WDE8388 — position and weather

sailwx.info

Track history (hours):
 
Tides and Currents Weather Stations Pressure Air Temp Water Temp Dewpoint Dewpoint Depression Visibility Wind Speed Wind Dir Waves Ship Positions

San Brendan

Owner: Buffalo Marine Service, Inc., Houston, TX. More information available from US FCC via Universal Licensing System and Coast Guard Vessel Documentation Center.

Last reported at 2017-Oct-20 16:00 UTC. Time now 2017-Oct-20 16:30 UTC.
Position N 29°43' W 095°17'.

Length 28 m; draft 3.3 m.

Type: Tug. MMSI: 367404910.

Date/timePositionNaut miles runAvg speedWind from/ knotsBaromVisibWave heightAir tempDewpointWater temp
2017-Oct-20 16:00N 29°43' W 095°17'0 0.0
2017-Oct-20 15:30N 29°43' W 095°17'0 0.0
2017-Oct-20 15:00N 29°43' W 095°17'0 0.0
2017-Oct-20 14:30N 29°43' W 095°17'0 0.0
2017-Oct-20 13:28N 29°43' W 095°17'0 0.0
2017-Oct-20 13:00N 29°43' W 095°17'0 0.0
2017-Oct-20 12:30N 29°43' W 095°17'0 0.0
2017-Oct-20 12:00N 29°43' W 095°17'0 0.0
2017-Oct-20 11:30N 29°43' W 095°17'0 0.0
2017-Oct-20 11:00N 29°43' W 095°17'0 0.0
2017-Oct-20 10:30N 29°43' W 095°17'0 0.0
2017-Oct-20 10:00N 29°43' W 095°17'0 0.0
2017-Oct-20 09:29N 29°43' W 095°17'0 0.0
2017-Oct-20 09:00N 29°43' W 095°17'0 0.0
2017-Oct-20 08:30N 29°43' W 095°17'0 0.0
2017-Oct-20 08:00N 29°43' W 095°17'0 0.0
2017-Oct-20 07:30N 29°43' W 095°17'0 0.0
2017-Oct-20 07:00N 29°43' W 095°17'0 0.0
2017-Oct-20 06:23N 29°43' W 095°17'0 0.0
2017-Oct-20 06:00N 29°43' W 095°17'0 0.0
2017-Oct-20 05:30N 29°43' W 095°17'0 0.0
2017-Oct-20 05:00N 29°43' W 095°17'0 0.0
2017-Oct-20 04:30N 29°43' W 095°17'0 0.0
2017-Oct-20 04:00N 29°43' W 095°17'0 0.0
2017-Oct-20 03:30N 29°43' W 095°17'0 0.0
2017-Oct-20 03:00N 29°43' W 095°17'0 0.0
2017-Oct-20 02:30N 29°43' W 095°17'0 0.0
2017-Oct-20 02:00N 29°43' W 095°17'0 0.0
2017-Oct-20 01:30N 29°43' W 095°17'0 0.0
2017-Oct-20 01:00N 29°43' W 095°17'0 0.0
2017-Oct-20 00:30N 29°43' W 095°17'0 0.0
2017-Oct-20 00:00N 29°43' W 095°17'0 0.0
2017-Oct-19 23:30N 29°43' W 095°17'0 0.0
2017-Oct-19 23:00N 29°43' W 095°17'0 0.0
2017-Oct-19 22:30N 29°43' W 095°17'0 0.0
2017-Oct-19 22:00N 29°43' W 095°17'0 0.0
2017-Oct-19 21:30N 29°43' W 095°17'0 0.0
2017-Oct-19 21:00N 29°43' W 095°17'0 0.1
2017-Oct-19 20:27N 29°43' W 095°16'2 2.8
2017-Oct-19 19:51N 29°43' W 095°14'3 6.6
2017-Oct-19 19:26N 29°45' W 095°12'3 7.0
2017-Oct-19 19:00N 29°44' W 095°08'2 0.2
2017-Oct-19 09:32N 29°45' W 095°06'0 0.5
2017-Oct-19 09:28N 29°45' W 095°06'2 0.2
2017-Oct-19 00:05N 29°46' W 095°05'1 2.5
2017-Oct-18 23:50N 29°46' W 095°05'1 0.1
2017-Oct-18 11:47N 29°45' W 095°06'0 0.0
2017-Oct-18 11:27N 29°45' W 095°06'0 0.3
2017-Oct-18 10:57N 29°45' W 095°06'1 2.7
2017-Oct-18 10:29N 29°46' W 095°06'1 0.4
2017-Oct-18 09:03N 29°47' W 095°06'0 0.0
2017-Oct-18 08:56N 29°47' W 095°06'0 0.0
2017-Oct-18 04:53N 29°46' W 095°06'1 2.3
2017-Oct-18 04:29N 29°46' W 095°06'1 1.7
2017-Oct-18 04:00N 29°45' W 095°06'2 2.5
2017-Oct-18 03:22N 29°46' W 095°06'1 0.9
2017-Oct-18 02:40N 29°46' W 095°06'1 5.5
2017-Oct-18 02:28N 29°45' W 095°06'3 6.9
2017-Oct-18 01:59N 29°45' W 095°10'3 6.9
2017-Oct-18 01:30N 29°44' W 095°13'3 5.2
2017-Oct-18 01:00N 29°43' W 095°16'0 0.6
2017-Oct-18 00:30N 29°43' W 095°17'0 0.0
2017-Oct-18 00:00N 29°43' W 095°17'0 0.0
2017-Oct-17 23:31N 29°43' W 095°17'0 0.0
2017-Oct-17 23:00N 29°43' W 095°17'0 0.0
2017-Oct-17 22:30N 29°43' W 095°17'0 0.0
2017-Oct-17 22:00N 29°43' W 095°17'0 0.0
2017-Oct-17 21:30N 29°43' W 095°17'0 0.0
2017-Oct-17 21:00N 29°43' W 095°17'0 0.0
2017-Oct-17 20:30N 29°43' W 095°17'0 0.0
2017-Oct-17 20:00N 29°43' W 095°17'0 0.0
2017-Oct-17 19:29N 29°43' W 095°17'0 0.0
2017-Oct-17 18:56N 29°43' W 095°17'0 0.0
2017-Oct-17 18:30N 29°43' W 095°17'2 2.7
2017-Oct-17 17:51N 29°43' W 095°14'2 6.9
2017-Oct-17 17:30N 29°44' W 095°12'3 6.9
2017-Oct-17 17:00N 29°44' W 095°08'4 1.8
2017-Oct-17 14:57N 29°46' W 095°04'2 4.7
2017-Oct-17 14:30N 29°44' W 095°03'0 0.1
2017-Oct-17 13:42N 29°44' W 095°03'0 0.5
2017-Oct-17 13:30N 29°44' W 095°03'0 0.1
2017-Oct-17 13:00N 29°44' W 095°03'0 0.1
2017-Oct-17 12:25N 29°44' W 095°03'0 0.0
2017-Oct-17 11:57N 29°44' W 095°03'0 0.0
2017-Oct-17 11:30N 29°44' W 095°03'0 0.0
2017-Oct-17 10:59N 29°44' W 095°03'0 0.0
2017-Oct-17 10:30N 29°44' W 095°03'0 0.0
2017-Oct-17 10:00N 29°44' W 095°03'0 0.0
2017-Oct-17 09:30N 29°44' W 095°03'0 0.0
2017-Oct-17 09:00N 29°44' W 095°03'0 0.0
2017-Oct-17 08:28N 29°44' W 095°03'0 0.0
2017-Oct-17 08:00N 29°44' W 095°03'0 0.0
2017-Oct-17 07:30N 29°44' W 095°03'0 0.0
2017-Oct-17 06:59N 29°44' W 095°03'0 0.0
2017-Oct-17 06:30N 29°44' W 095°03'0 0.0
2017-Oct-17 06:00N 29°44' W 095°03'0 0.0
2017-Oct-17 05:26N 29°44' W 095°03'0 0.0
2017-Oct-17 05:00N 29°44' W 095°03'0 0.0
2017-Oct-17 04:30N 29°44' W 095°03'0 0.0
2017-Oct-17 04:00N 29°44' W 095°03'0 0.0
2017-Oct-17 03:30N 29°44' W 095°03'0 0.0
2017-Oct-17 02:59N 29°44' W 095°03'0 0.0
2017-Oct-17 02:30N 29°44' W 095°03'0 0.0
2017-Oct-17 02:00N 29°44' W 095°03'0 0.0
2017-Oct-17 01:30N 29°44' W 095°03'0 0.0
2017-Oct-17 00:59N 29°44' W 095°03'0 0.0
2017-Oct-17 00:30N 29°44' W 095°03'0 0.0
2017-Oct-17 00:00N 29°44' W 095°03'0 0.0
2017-Oct-16 23:30N 29°44' W 095°03'0 0.0
2017-Oct-16 22:58N 29°44' W 095°03'0 0.0
2017-Oct-16 22:30N 29°44' W 095°03'0 0.0
2017-Oct-16 22:00N 29°44' W 095°03'0 0.0
2017-Oct-16 21:30N 29°44' W 095°03'0 0.0
2017-Oct-16 20:59N 29°44' W 095°03'0 0.0
2017-Oct-16 20:30N 29°44' W 095°03'0 0.1
2017-Oct-16 20:00N 29°44' W 095°03'0 0.0
2017-Oct-16 19:30N 29°44' W 095°03'0 0.0
2017-Oct-16 19:00N 29°44' W 095°03'0 0.0
2017-Oct-16 18:30N 29°44' W 095°03'0 0.0
2017-Oct-16 18:00N 29°44' W 095°03'0 0.0
2017-Oct-16 17:24N 29°44' W 095°03'0 0.0
2017-Oct-16 16:54N 29°44' W 095°03'0 0.0
2017-Oct-16 16:27N 29°44' W 095°03'0 0.0
2017-Oct-16 16:00N 29°44' W 095°03'0 0.0
2017-Oct-16 15:26N 29°44' W 095°03'0 0.1
2017-Oct-16 14:58N 29°44' W 095°03'0 0.0
2017-Oct-16 14:00N 29°44' W 095°03'0 0.0
2017-Oct-16 13:24N 29°44' W 095°03'0 0.0
2017-Oct-16 12:58N 29°44' W 095°03'0 0.0
2017-Oct-16 12:26N 29°44' W 095°03'0 0.0
2017-Oct-16 11:57N 29°44' W 095°03'0 0.0
2017-Oct-16 11:29N 29°44' W 095°03'0 0.0
2017-Oct-16 10:56N 29°44' W 095°03'0 0.0
2017-Oct-16 10:28N 29°44' W 095°03'0 0.0
2017-Oct-16 09:59N 29°44' W 095°03'0 0.0
2017-Oct-16 09:25N 29°44' W 095°03'0 0.0
2017-Oct-16 08:53N 29°44' W 095°03'0 0.0
2017-Oct-16 08:28N 29°44' W 095°03'0 0.0
2017-Oct-16 07:57N 29°44' W 095°03'0 0.0
2017-Oct-16 07:28N 29°44' W 095°03'0 0.0
2017-Oct-16 07:00N 29°44' W 095°03'0 0.1
2017-Oct-16 06:30N 29°44' W 095°03'1 1.5
2017-Oct-16 06:00N 29°44' W 095°02'2 4.6
2017-Oct-16 05:30N 29°42' W 095°01'2 4.7
2017-Oct-16 05:00N 29°40' W 094°59'3 5.4
2017-Oct-16 04:27N 29°38' W 094°58'3 5.9
2017-Oct-16 04:00N 29°35' W 094°56'3 5.9
2017-Oct-16 03:30N 29°33' W 094°54'3 5.1
2017-Oct-16 03:00N 29°31' W 094°53'  
Track history (hours):
 
Tides and Currents Weather Stations Pressure Air Temp Water Temp Dewpoint Dewpoint Depression Visibility Wind Speed Wind Dir Waves Ship Positions

San Brendan

Owner: Buffalo Marine Service, Inc., Houston, TX. More information available from US FCC via Universal Licensing System and Coast Guard Vessel Documentation Center.

Last reported at 2017-Oct-20 16:00 UTC. Time now 2017-Oct-20 16:30 UTC.
Position N 29°43' W 095°17'.

Length 28 m; draft 3.3 m.

Type: Tug. MMSI: 367404910.

Date/timePositionNaut miles runAvg speedWind from/ knotsBaromVisibWave heightAir tempDewpointWater temp
2017-Oct-20 16:00N 29°43' W 095°17'0 0.0
2017-Oct-20 15:30N 29°43' W 095°17'0 0.0
2017-Oct-20 15:00N 29°43' W 095°17'0 0.0
2017-Oct-20 14:30N 29°43' W 095°17'0 0.0
2017-Oct-20 13:28N 29°43' W 095°17'0 0.0
2017-Oct-20 13:00N 29°43' W 095°17'0 0.0
2017-Oct-20 12:30N 29°43' W 095°17'0 0.0
2017-Oct-20 12:00N 29°43' W 095°17'0 0.0
2017-Oct-20 11:30N 29°43' W 095°17'0 0.0
2017-Oct-20 11:00N 29°43' W 095°17'0 0.0
2017-Oct-20 10:30N 29°43' W 095°17'0 0.0
2017-Oct-20 10:00N 29°43' W 095°17'0 0.0
2017-Oct-20 09:29N 29°43' W 095°17'0 0.0
2017-Oct-20 09:00N 29°43' W 095°17'0 0.0
2017-Oct-20 08:30N 29°43' W 095°17'0 0.0
2017-Oct-20 08:00N 29°43' W 095°17'0 0.0
2017-Oct-20 07:30N 29°43' W 095°17'0 0.0
2017-Oct-20 07:00N 29°43' W 095°17'0 0.0
2017-Oct-20 06:23N 29°43' W 095°17'0 0.0
2017-Oct-20 06:00N 29°43' W 095°17'0 0.0
2017-Oct-20 05:30N 29°43' W 095°17'0 0.0
2017-Oct-20 05:00N 29°43' W 095°17'0 0.0
2017-Oct-20 04:30N 29°43' W 095°17'0 0.0
2017-Oct-20 04:00N 29°43' W 095°17'0 0.0
2017-Oct-20 03:30N 29°43' W 095°17'0 0.0
2017-Oct-20 03:00N 29°43' W 095°17'0 0.0
2017-Oct-20 02:30N 29°43' W 095°17'0 0.0
2017-Oct-20 02:00N 29°43' W 095°17'0 0.0
2017-Oct-20 01:30N 29°43' W 095°17'0 0.0
2017-Oct-20 01:00N 29°43' W 095°17'0 0.0
2017-Oct-20 00:30N 29°43' W 095°17'0 0.0
2017-Oct-20 00:00N 29°43' W 095°17'0 0.0
2017-Oct-19 23:30N 29°43' W 095°17'0 0.0
2017-Oct-19 23:00N 29°43' W 095°17'0 0.0
2017-Oct-19 22:30N 29°43' W 095°17'0 0.0
2017-Oct-19 22:00N 29°43' W 095°17'0 0.0
2017-Oct-19 21:30N 29°43' W 095°17'0 0.0
2017-Oct-19 21:00N 29°43' W 095°17'0 0.1
2017-Oct-19 20:27N 29°43' W 095°16'2 2.8
2017-Oct-19 19:51N 29°43' W 095°14'3 6.6
2017-Oct-19 19:26N 29°45' W 095°12'3 7.0
2017-Oct-19 19:00N 29°44' W 095°08'2 0.2
2017-Oct-19 09:32N 29°45' W 095°06'0 0.5
2017-Oct-19 09:28N 29°45' W 095°06'2 0.2
2017-Oct-19 00:05N 29°46' W 095°05'1 2.5
2017-Oct-18 23:50N 29°46' W 095°05'1 0.1
2017-Oct-18 11:47N 29°45' W 095°06'0 0.0
2017-Oct-18 11:27N 29°45' W 095°06'0 0.3
2017-Oct-18 10:57N 29°45' W 095°06'1 2.7
2017-Oct-18 10:29N 29°46' W 095°06'1 0.4
2017-Oct-18 09:03N 29°47' W 095°06'0 0.0
2017-Oct-18 08:56N 29°47' W 095°06'0 0.0
2017-Oct-18 04:53N 29°46' W 095°06'1 2.3
2017-Oct-18 04:29N 29°46' W 095°06'1 1.7
2017-Oct-18 04:00N 29°45' W 095°06'2 2.5
2017-Oct-18 03:22N 29°46' W 095°06'1 0.9
2017-Oct-18 02:40N 29°46' W 095°06'1 5.5
2017-Oct-18 02:28N 29°45' W 095°06'3 6.9
2017-Oct-18 01:59N 29°45' W 095°10'3 6.9
2017-Oct-18 01:30N 29°44' W 095°13'3 5.2
2017-Oct-18 01:00N 29°43' W 095°16'0 0.6
2017-Oct-18 00:30N 29°43' W 095°17'0 0.0
2017-Oct-18 00:00N 29°43' W 095°17'0 0.0
2017-Oct-17 23:31N 29°43' W 095°17'0 0.0
2017-Oct-17 23:00N 29°43' W 095°17'0 0.0
2017-Oct-17 22:30N 29°43' W 095°17'0 0.0
2017-Oct-17 22:00N 29°43' W 095°17'0 0.0
2017-Oct-17 21:30N 29°43' W 095°17'0 0.0
2017-Oct-17 21:00N 29°43' W 095°17'0 0.0
2017-Oct-17 20:30N 29°43' W 095°17'0 0.0
2017-Oct-17 20:00N 29°43' W 095°17'0 0.0
2017-Oct-17 19:29N 29°43' W 095°17'0 0.0
2017-Oct-17 18:56N 29°43' W 095°17'0 0.0
2017-Oct-17 18:30N 29°43' W 095°17'2 2.7
2017-Oct-17 17:51N 29°43' W 095°14'2 6.9
2017-Oct-17 17:30N 29°44' W 095°12'3 6.9
2017-Oct-17 17:00N 29°44' W 095°08'4 1.8
2017-Oct-17 14:57N 29°46' W 095°04'2 4.7
2017-Oct-17 14:30N 29°44' W 095°03'0 0.1
2017-Oct-17 13:42N 29°44' W 095°03'0 0.5
2017-Oct-17 13:30N 29°44' W 095°03'0 0.1
2017-Oct-17 13:00N 29°44' W 095°03'0 0.1
2017-Oct-17 12:25N 29°44' W 095°03'0 0.0
2017-Oct-17 11:57N 29°44' W 095°03'0 0.0
2017-Oct-17 11:30N 29°44' W 095°03'0 0.0
2017-Oct-17 10:59N 29°44' W 095°03'0 0.0
2017-Oct-17 10:30N 29°44' W 095°03'0 0.0
2017-Oct-17 10:00N 29°44' W 095°03'0 0.0
2017-Oct-17 09:30N 29°44' W 095°03'0 0.0
2017-Oct-17 09:00N 29°44' W 095°03'0 0.0
2017-Oct-17 08:28N 29°44' W 095°03'0 0.0
2017-Oct-17 08:00N 29°44' W 095°03'0 0.0
2017-Oct-17 07:30N 29°44' W 095°03'0 0.0
2017-Oct-17 06:59N 29°44' W 095°03'0 0.0
2017-Oct-17 06:30N 29°44' W 095°03'0 0.0
2017-Oct-17 06:00N 29°44' W 095°03'0 0.0
2017-Oct-17 05:26N 29°44' W 095°03'0 0.0
2017-Oct-17 05:00N 29°44' W 095°03'0 0.0
2017-Oct-17 04:30N 29°44' W 095°03'0 0.0
2017-Oct-17 04:00N 29°44' W 095°03'0 0.0
2017-Oct-17 03:30N 29°44' W 095°03'0 0.0
2017-Oct-17 02:59N 29°44' W 095°03'0 0.0
2017-Oct-17 02:30N 29°44' W 095°03'0 0.0
2017-Oct-17 02:00N 29°44' W 095°03'0 0.0
2017-Oct-17 01:30N 29°44' W 095°03'0 0.0
2017-Oct-17 00:59N 29°44' W 095°03'0 0.0
2017-Oct-17 00:30N 29°44' W 095°03'0 0.0
2017-Oct-17 00:00N 29°44' W 095°03'0 0.0
2017-Oct-16 23:30N 29°44' W 095°03'0 0.0
2017-Oct-16 22:58N 29°44' W 095°03'0 0.0
2017-Oct-16 22:30N 29°44' W 095°03'0 0.0
2017-Oct-16 22:00N 29°44' W 095°03'0 0.0
2017-Oct-16 21:30N 29°44' W 095°03'0 0.0
2017-Oct-16 20:59N 29°44' W 095°03'0 0.0
2017-Oct-16 20:30N 29°44' W 095°03'0 0.1
2017-Oct-16 20:00N 29°44' W 095°03'0 0.0
2017-Oct-16 19:30N 29°44' W 095°03'0 0.0
2017-Oct-16 19:00N 29°44' W 095°03'0 0.0
2017-Oct-16 18:30N 29°44' W 095°03'0 0.0
2017-Oct-16 18:00N 29°44' W 095°03'0 0.0
2017-Oct-16 17:24N 29°44' W 095°03'0 0.0
2017-Oct-16 16:54N 29°44' W 095°03'0 0.0
2017-Oct-16 16:27N 29°44' W 095°03'0 0.0
2017-Oct-16 16:00N 29°44' W 095°03'0 0.0
2017-Oct-16 15:26N 29°44' W 095°03'0 0.1
2017-Oct-16 14:58N 29°44' W 095°03'0 0.0
2017-Oct-16 14:00N 29°44' W 095°03'0 0.0
2017-Oct-16 13:24N 29°44' W 095°03'0 0.0
2017-Oct-16 12:58N 29°44' W 095°03'0 0.0
2017-Oct-16 12:26N 29°44' W 095°03'0 0.0
2017-Oct-16 11:57N 29°44' W 095°03'0 0.0
2017-Oct-16 11:29N 29°44' W 095°03'0 0.0
2017-Oct-16 10:56N 29°44' W 095°03'0 0.0
2017-Oct-16 10:28N 29°44' W 095°03'0 0.0
2017-Oct-16 09:59N 29°44' W 095°03'0 0.0
2017-Oct-16 09:25N 29°44' W 095°03'0 0.0
2017-Oct-16 08:53N 29°44' W 095°03'0 0.0
2017-Oct-16 08:28N 29°44' W 095°03'0 0.0
2017-Oct-16 07:57N 29°44' W 095°03'0 0.0
2017-Oct-16 07:28N 29°44' W 095°03'0 0.0
2017-Oct-16 07:00N 29°44' W 095°03'0 0.1
2017-Oct-16 06:30N 29°44' W 095°03'1 1.5
2017-Oct-16 06:00N 29°44' W 095°02'2 4.6
2017-Oct-16 05:30N 29°42' W 095°01'2 4.7
2017-Oct-16 05:00N 29°40' W 094°59'3 5.4
2017-Oct-16 04:27N 29°38' W 094°58'3 5.9
2017-Oct-16 04:00N 29°35' W 094°56'3 5.9
2017-Oct-16 03:30N 29°33' W 094°54'3 5.1
2017-Oct-16 03:00N 29°31' W 094°53'  

Dump ship's entire track history